Hauptseite
METAR-TAF:

METAR-TAF

Flughäfen :

Woodvale, England

Breite: 53-34-54N, Länge: 003-03-20W, Höhe: 11 m

Beobachtung

Neuester Wetterbericht von vor 12 Stunden und 59 Minuten, um 13:50 UTC
Wind 8 kt aus Nordwest
Temperatur 12°C
Luftfeuchtigkeit 62%
Luftdruck 1034 hPa
Sichtweite 10 km oder mehr
Leicht bewölkt in der Höhe von 2500 ft

METAR: EGOW 141350Z 31008KT 9999 FEW025 12/05 Q1034 RMK BLU

Zeit: 03:49 (02:49 UTC)

Prognose

Neuester Wetterbericht von vor 13 Stunden und 15 Minuten, um 13:34 UTC
Gültige Prognose vom 14 um 15 UTC bis 14 um 18 UTC
Wind 7 kt aus Nord
Sichtweite 10 km oder mehr
Aufgelockert bewölkt in der Höhe von 2500 ft

TAF: EGOW 141334Z 1415/1418 35007KT 9999 SCT025

Wetterbeobachtungen und Prognosen von mehr als 4000 Flughäfen (METAR und TAF Bericht).

Die verfügbaren Stationen werden durch gelbe und rote Markierungen auf der Karte dargestellt.

Führen Sie die Maus auf sie, um den Namen der Station zu sehen.

Darauf klicken, um die Beobachtung von Wetterbeobachtungen und Prognosen zu sehen.

Um die Karte zu ändern : klicken Sie auf den grünen Tasten mit einem schwarzen Kreuz Zum Vergrößern, auf den grünen Button mit einem Gedankenstrich zu verkleinern, oder auf die grünen Pfeile für benachbarte Karten.


METAR-TAF: